Hauptseite
METAR-TAF:

METAR-TAF

Flughäfen :

Belgrad, Serbien

Nikola-Tesla-Flughafen Belgrad

Breite: 44-49N, Länge: 020-17E, Höhe: 96 m

Beobachtung

Neuester Wetterbericht von vor 31 Minuten, um 07:00 UTC
Wind 9 kt aus Süd/Südwest
Temperatur 8°C
Luftfeuchtigkeit 66%
Luftdruck 1018 hPa
Sichtweite 10 km oder mehr
keine Wolken unter 1500 m und keine Kumulonimbus oder Gewitterwolken

METAR: LYBE 220700Z 20009KT CAVOK 08/02 Q1018 NOSIG

Zeit: 08:31 (07:31 UTC)

Prognose

Neuester Wetterbericht von vor 2 Stunden und 31 Minuten, um 05:00 UTC
Gültige Prognose vom 22 um 06 UTC bis 23 um 06 UTC
Wind 6 kt aus Südwest
Sichtweite 10 km oder mehr
Aufgelockert bewölkt in der Höhe von 4000 ft
Zeitweise
vom 23 um 04 UTC bis 23 um 06 UTC
Sichtweite: 5000 m
feuchter Dunst

TAF: LYBE 220500Z 2206/2306 22006KT 9999 SCT040 TX15/2213Z TN06/2305Z TEMPO 2304/2306 5000 BR

Wetterbeobachtungen und Prognosen von mehr als 4000 Flughäfen (METAR und TAF Bericht).

Die verfügbaren Stationen werden durch gelbe und rote Markierungen auf der Karte dargestellt.

Führen Sie die Maus auf sie, um den Namen der Station zu sehen.

Darauf klicken, um die Beobachtung von Wetterbeobachtungen und Prognosen zu sehen.

Um die Karte zu ändern : klicken Sie auf den grünen Tasten mit einem schwarzen Kreuz Zum Vergrößern, auf den grünen Button mit einem Gedankenstrich zu verkleinern, oder auf die grünen Pfeile für benachbarte Karten.


METAR-TAF: